createdAt,value
2017-10-18T00:01:53.913Z,86.30
2017-10-18T00:04:22.812Z,86.50
2017-10-18T00:06:51.690Z,86.50
2017-10-18T00:09:20.611Z,86.50
2017-10-18T00:11:48.717Z,86.50
2017-10-18T00:14:16.858Z,85.60
2017-10-18T00:16:45.425Z,85.90
2017-10-18T00:19:14.329Z,85.70
2017-10-18T00:21:42.846Z,85.70
2017-10-18T00:24:10.988Z,84.90
2017-10-18T00:26:39.111Z,84.40
2017-10-18T00:29:07.261Z,84.70
2017-10-18T00:31:35.380Z,84.70
2017-10-18T00:34:04.343Z,84.00
2017-10-18T00:36:32.462Z,84.00
2017-10-18T00:39:02.190Z,83.40
2017-10-18T00:41:30.314Z,83.40
2017-10-18T00:43:58.438Z,84.10
2017-10-18T00:46:26.574Z,83.90
2017-10-18T00:48:55.471Z,84.40
2017-10-18T00:51:24.401Z,84.80
2017-10-18T00:53:52.527Z,84.80
2017-10-18T00:56:21.437Z,85.20
2017-10-18T00:58:49.553Z,85.30
2017-10-18T01:01:18.745Z,85.10
2017-10-18T01:03:46.867Z,85.80
2017-10-18T01:06:15.773Z,85.60
2017-10-18T01:08:44.574Z,85.50
2017-10-18T01:11:12.709Z,85.40
2017-10-18T01:13:41.980Z,85.20
2017-10-18T01:16:10.177Z,85.30
2017-10-18T01:18:38.302Z,85.40
2017-10-18T01:21:06.862Z,86.30
2017-10-18T01:23:34.985Z,86.70
2017-10-18T01:26:03.125Z,86.80
2017-10-18T01:28:32.578Z,87.20
2017-10-18T01:31:01.799Z,87.10
2017-10-18T01:33:30.688Z,86.70
2017-10-18T01:36:00.125Z,86.40
2017-10-18T01:38:28.250Z,86.40
2017-10-18T01:40:56.384Z,86.00
2017-10-18T01:43:24.553Z,86.40
2017-10-18T01:45:54.955Z,85.80
2017-10-18T01:48:23.088Z,85.80
2017-10-18T01:50:51.240Z,85.50
2017-10-18T01:53:19.359Z,86.10
2017-10-18T01:55:48.248Z,86.40
2017-10-18T01:58:17.170Z,86.30
2017-10-18T02:00:45.308Z,86.30
2017-10-18T02:03:13.891Z,86.60
2017-10-18T02:05:42.797Z,87.00
2017-10-18T02:08:13.096Z,86.10
2017-10-18T02:10:41.213Z,86.10
2017-10-18T02:13:09.345Z,86.10
2017-10-18T02:15:37.466Z,85.80
2017-10-18T02:18:05.626Z,85.20
2017-10-18T02:20:35.026Z,85.50
2017-10-18T02:23:03.163Z,85.60
2017-10-18T02:25:31.284Z,85.30
2017-10-18T02:27:59.432Z,85.30
2017-10-18T02:30:28.341Z,86.00
2017-10-18T02:32:56.485Z,86.00
2017-10-18T02:35:26.023Z,86.50
2017-10-18T02:37:54.163Z,86.40
2017-10-18T02:40:22.343Z,86.70
2017-10-18T02:42:52.070Z,86.70
2017-10-18T02:45:20.201Z,86.10
2017-10-18T02:47:48.331Z,85.50
2017-10-18T02:50:18.931Z,85.70
2017-10-18T02:52:47.860Z,85.20
2017-10-18T02:55:15.974Z,85.10
2017-10-18T02:57:46.117Z,85.50
2017-10-18T03:00:15.019Z,85.70
2017-10-18T03:02:43.693Z,85.70
2017-10-18T03:05:12.607Z,85.40
2017-10-18T03:07:40.714Z,85.40
2017-10-18T03:10:09.297Z,85.30
2017-10-18T03:12:39.357Z,86.10
2017-10-18T03:15:08.266Z,86.00
2017-10-18T03:17:37.756Z,86.00
2017-10-18T03:20:06.664Z,85.80
2017-10-18T03:22:34.782Z,85.70
2017-10-18T03:25:02.908Z,86.00
2017-10-18T03:27:32.014Z,86.00
2017-10-18T03:30:00.162Z,86.30
2017-10-18T03:32:29.053Z,86.30
2017-10-18T03:34:57.957Z,86.50
2017-10-18T03:37:26.085Z,86.50
2017-10-18T03:39:54.217Z,86.20
2017-10-18T03:42:23.398Z,86.40
2017-10-18T03:44:51.554Z,86.20
2017-10-18T03:47:20.443Z,86.20
2017-10-18T03:49:48.548Z,86.20
2017-10-18T03:52:16.682Z,85.50
2017-10-18T03:54:44.788Z,85.70
2017-10-18T03:57:12.929Z,86.40
2017-10-18T03:59:41.045Z,85.80
2017-10-18T04:02:09.193Z,86.00
2017-10-18T04:04:37.904Z,85.50
2017-10-18T04:07:06.045Z,85.30
2017-10-18T04:09:34.931Z,85.80
2017-10-18T04:12:03.090Z,85.80
2017-10-18T04:14:31.214Z,85.80
2017-10-18T04:16:59.349Z,85.60
2017-10-18T04:19:27.463Z,85.70
2017-10-18T04:21:55.602Z,86.10
2017-10-18T04:24:24.480Z,85.10
2017-10-18T04:26:52.612Z,85.10
2017-10-18T04:29:22.193Z,85.00
2017-10-18T04:31:51.168Z,84.70
2017-10-18T04:34:20.040Z,85.00
2017-10-18T04:36:48.657Z,85.00
2017-10-18T04:39:16.783Z,85.30
2017-10-18T04:41:46.077Z,85.60
2017-10-18T04:44:14.190Z,86.00
2017-10-18T04:46:43.462Z,85.60
2017-10-18T04:49:11.601Z,85.60
2017-10-18T04:51:39.744Z,85.60
2017-10-18T04:54:12.809Z,85.70
2017-10-18T04:56:40.954Z,85.70
2017-10-18T04:59:09.082Z,85.60
2017-10-18T05:01:38.454Z,85.80
2017-10-18T05:04:07.492Z,85.80
2017-10-18T05:06:35.596Z,86.30
2017-10-18T05:09:03.742Z,86.50
2017-10-18T05:11:32.708Z,86.20
2017-10-18T05:14:01.605Z,86.60
2017-10-18T05:16:30.487Z,86.50
2017-10-18T05:18:59.397Z,86.20
2017-10-18T05:21:27.508Z,86.10
2017-10-18T05:23:55.643Z,86.30
2017-10-18T05:26:24.611Z,86.00
2017-10-18T05:28:52.757Z,85.90
2017-10-18T05:31:20.874Z,86.20
2017-10-18T05:33:49.784Z,85.50
2017-10-18T05:36:17.915Z,85.50
2017-10-18T05:38:46.250Z,85.00
2017-10-18T05:41:14.365Z,84.60
2017-10-18T05:43:42.498Z,84.90
2017-10-18T05:46:10.615Z,84.80
2017-10-18T05:48:38.748Z,85.00
2017-10-18T05:51:06.876Z,85.20
2017-10-18T05:53:35.905Z,84.90
2017-10-18T05:56:04.037Z,85.10
2017-10-18T05:58:32.168Z,84.60
2017-10-18T06:01:00.301Z,84.70
2017-10-18T06:03:29.216Z,85.80
2017-10-18T06:05:59.021Z,85.70
2017-10-18T06:08:27.166Z,85.20
2017-10-18T06:10:55.290Z,85.30
2017-10-18T06:13:23.424Z,85.20
2017-10-18T06:15:52.350Z,85.90
2017-10-18T06:18:20.464Z,85.90
2017-10-18T06:20:48.598Z,86.40
2017-10-18T06:23:18.583Z,87.50
2017-10-18T06:25:47.479Z,87.30
2017-10-18T06:28:15.610Z,87.30
2017-10-18T06:30:43.751Z,87.50
2017-10-18T06:33:12.301Z,87.40
2017-10-18T06:35:41.213Z,87.30
2017-10-18T06:38:09.329Z,87.30
2017-10-18T06:40:37.490Z,87.20
2017-10-18T06:43:05.610Z,86.60
2017-10-18T06:45:34.508Z,85.50
2017-10-18T06:48:02.629Z,85.40
2017-10-18T06:50:30.772Z,85.00
2017-10-18T06:52:58.905Z,85.20
2017-10-18T06:55:27.818Z,86.20
2017-10-18T06:57:55.950Z,86.20
2017-10-18T07:00:24.080Z,86.50
2017-10-18T07:02:52.188Z,86.70
2017-10-18T07:05:20.348Z,86.60
2017-10-18T07:07:48.469Z,85.90
2017-10-18T07:10:17.402Z,85.50
2017-10-18T07:12:45.530Z,85.50
2017-10-18T07:15:14.422Z,85.00
2017-10-18T07:17:43.317Z,85.30
2017-10-18T07:20:13.383Z,85.00
2017-10-18T07:22:42.032Z,84.90
2017-10-18T07:25:10.161Z,85.60
2017-10-18T07:27:38.301Z,85.60
2017-10-18T07:30:06.435Z,85.20
2017-10-18T07:32:35.841Z,85.20
2017-10-18T07:35:04.720Z,85.10
2017-10-18T07:37:32.880Z,85.10
2017-10-18T07:40:01.024Z,85.00
2017-10-18T07:42:30.992Z,85.20
2017-10-18T07:44:59.890Z,85.40
2017-10-18T07:47:28.838Z,85.30
2017-10-18T07:49:58.029Z,85.30
2017-10-18T07:52:26.169Z,86.00
2017-10-18T07:54:54.319Z,86.70
2017-10-18T07:57:23.226Z,87.00
2017-10-18T07:59:52.109Z,86.90
2017-10-18T08:02:21.017Z,86.00
2017-10-18T08:04:49.121Z,86.00
2017-10-18T08:07:17.260Z,86.50
2017-10-18T08:09:45.368Z,86.40
2017-10-18T08:12:13.911Z,86.30
2017-10-18T08:14:43.914Z,85.70
2017-10-18T08:17:12.816Z,84.20
2017-10-18T08:19:40.931Z,84.10
2017-10-18T08:22:09.866Z,83.80
2017-10-18T08:24:38.757Z,83.40
2017-10-18T08:27:07.697Z,83.20
2017-10-18T08:29:35.821Z,83.20
2017-10-18T08:32:04.700Z,82.40
2017-10-18T08:34:32.851Z,82.40
2017-10-18T08:37:00.980Z,83.60
2017-10-18T08:39:29.120Z,82.40
2017-10-18T08:41:57.250Z,82.50
2017-10-18T08:44:25.398Z,81.40
2017-10-18T08:46:53.503Z,81.30
2017-10-18T08:49:21.645Z,82.20
2017-10-18T08:51:49.762Z,82.20
2017-10-18T08:54:18.586Z,81.70
2017-10-18T08:56:47.482Z,81.00
2017-10-18T08:59:17.708Z,80.40
2017-10-18T09:01:46.588Z,80.40
2017-10-18T09:04:15.497Z,80.30
2017-10-18T09:06:43.640Z,80.30
2017-10-18T09:09:13.067Z,80.80
2017-10-18T09:11:41.942Z,81.60
2017-10-18T09:14:10.086Z,81.60
2017-10-18T09:16:39.758Z,80.60
2017-10-18T09:19:07.914Z,80.60
2017-10-18T09:21:36.476Z,82.10
2017-10-18T09:24:05.899Z,81.10
2017-10-18T09:26:34.784Z,80.10
2017-10-18T09:29:03.704Z,80.40
2017-10-18T09:31:31.847Z,80.40
2017-10-18T09:34:03.236Z,81.10
2017-10-18T09:36:31.376Z,81.10
2017-10-18T09:39:00.972Z,79.70
2017-10-18T09:41:31.724Z,81.30
2017-10-18T09:43:59.871Z,80.50
2017-10-18T09:46:28.784Z,80.30
2017-10-18T09:48:57.712Z,80.00
2017-10-18T09:51:25.857Z,79.90
2017-10-18T09:53:53.977Z,79.90
2017-10-18T09:56:22.105Z,80.00
2017-10-18T09:58:50.237Z,79.50
2017-10-18T10:01:18.865Z,78.90
2017-10-18T10:03:46.988Z,79.20
2017-10-18T10:06:15.157Z,79.10
2017-10-18T10:08:43.275Z,78.80
2017-10-18T10:11:11.421Z,78.60
2017-10-18T10:13:39.954Z,78.80
2017-10-18T10:16:08.524Z,78.40
2017-10-18T10:18:36.676Z,78.50
2017-10-18T10:21:05.589Z,79.10
2017-10-18T10:23:33.739Z,79.00
2017-10-18T10:26:02.654Z,78.70
2017-10-18T10:28:30.763Z,78.60
2017-10-18T10:30:58.900Z,78.20
2017-10-18T10:33:27.043Z,78.40
2017-10-18T10:35:55.983Z,77.70
2017-10-18T10:38:24.197Z,77.70
2017-10-18T10:40:52.336Z,77.10
2017-10-18T10:43:20.456Z,78.00
2017-10-18T10:45:49.864Z,77.50
2017-10-18T10:48:18.841Z,76.90
2017-10-18T10:50:47.006Z,76.80
2017-10-18T10:53:15.188Z,77.40
2017-10-18T10:55:43.323Z,78.10
2017-10-18T10:58:11.451Z,78.30
2017-10-18T11:00:41.484Z,78.70
2017-10-18T11:03:10.364Z,78.90
2017-10-18T11:05:39.267Z,79.80
2017-10-18T11:08:08.141Z,79.80
2017-10-18T11:10:37.051Z,80.50
2017-10-18T11:13:05.190Z,80.50
2017-10-18T11:15:33.308Z,80.10
2017-10-18T11:18:01.431Z,81.20
2017-10-18T11:20:31.868Z,79.60
2017-10-18T11:22:59.995Z,80.90
2017-10-18T11:25:28.119Z,81.00
2017-10-18T11:27:57.172Z,80.30
2017-10-18T11:30:25.309Z,80.70
2017-10-18T11:32:53.439Z,80.70
2017-10-18T11:35:22.052Z,81.40
2017-10-18T11:37:50.949Z,81.40
2017-10-18T11:40:19.216Z,81.30
2017-10-18T11:42:48.123Z,81.70
2017-10-18T11:45:17.014Z,81.80
2017-10-18T11:47:45.173Z,81.80
2017-10-18T11:50:14.062Z,80.70
2017-10-18T11:52:43.003Z,80.40
2017-10-18T11:55:11.123Z,80.40
2017-10-18T11:57:40.037Z,80.50
2017-10-18T12:00:08.205Z,80.40
2017-10-18T12:02:39.016Z,79.30
2017-10-18T12:05:08.328Z,79.30
2017-10-18T12:07:37.658Z,81.30
2017-10-18T12:10:05.784Z,81.20
2017-10-18T12:12:35.921Z,80.10
2017-10-18T12:15:04.837Z,80.80
2017-10-18T12:17:32.972Z,80.80
2017-10-18T12:20:01.120Z,82.10
2017-10-18T12:22:29.244Z,81.00
2017-10-18T12:24:58.150Z,81.30
2017-10-18T12:27:26.261Z,81.30
2017-10-18T12:29:54.437Z,81.10
2017-10-18T12:32:23.317Z,81.30
2017-10-18T12:34:51.462Z,81.30
2017-10-18T12:37:19.582Z,80.80
2017-10-18T12:39:47.771Z,80.00
2017-10-18T12:42:16.656Z,79.80
2017-10-18T12:44:45.859Z,79.00
2017-10-18T12:47:13.988Z,79.20
2017-10-18T12:49:42.153Z,79.50
2017-10-18T12:52:10.267Z,80.50
2017-10-18T12:54:38.402Z,80.60
2017-10-18T12:57:08.942Z,78.80
2017-10-18T12:59:37.464Z,80.60
2017-10-18T13:02:06.353Z,80.50
2017-10-18T13:04:34.498Z,80.50
2017-10-18T13:07:02.629Z,81.20
2017-10-18T13:09:30.774Z,80.90
2017-10-18T13:11:58.896Z,80.00
2017-10-18T13:14:27.033Z,80.30
2017-10-18T13:16:55.925Z,75.30
2017-10-18T13:19:24.820Z,76.00
2017-10-18T13:21:53.703Z,75.30
2017-10-18T13:24:22.613Z,75.80
2017-10-18T13:26:50.738Z,75.80
2017-10-18T13:29:19.660Z,77.60
2017-10-18T13:31:49.250Z,78.00
2017-10-18T13:34:17.370Z,77.90
2017-10-18T13:36:45.511Z,78.70
2017-10-18T13:39:16.990Z,78.60
2017-10-18T13:41:47.447Z,78.50
2017-10-18T13:44:16.641Z,79.00
2017-10-18T13:46:44.786Z,78.90
2017-10-18T13:49:12.901Z,78.70
2017-10-18T13:51:41.037Z,78.00
2017-10-18T13:54:09.167Z,75.80
2017-10-18T13:56:38.456Z,75.80
2017-10-18T13:59:06.570Z,74.70
2017-10-18T14:01:35.472Z,75.90
2017-10-18T14:04:03.620Z,75.90
2017-10-18T14:06:31.757Z,76.30
2017-10-18T14:08:59.861Z,75.00
2017-10-18T14:11:28.018Z,76.50
2017-10-18T14:13:56.136Z,76.00
2017-10-18T14:16:24.273Z,76.80
2017-10-18T14:18:52.402Z,77.60
2017-10-18T14:21:22.586Z,78.00
2017-10-18T14:23:51.472Z,78.30
2017-10-18T14:26:20.386Z,78.70
2017-10-18T14:28:49.626Z,78.70
2017-10-18T14:31:17.776Z,78.60
2017-10-18T14:33:46.298Z,78.40
2017-10-18T14:36:14.428Z,78.50
2017-10-18T14:38:42.540Z,78.20
2017-10-18T14:41:10.672Z,78.20
2017-10-18T14:43:38.789Z,78.00
2017-10-18T14:46:06.935Z,77.90
2017-10-18T14:48:35.049Z,77.80
2017-10-18T14:51:03.247Z,77.90
2017-10-18T14:53:31.380Z,77.70
2017-10-18T14:55:59.524Z,77.60
2017-10-18T14:58:27.648Z,77.50
2017-10-18T15:00:57.262Z,78.40
2017-10-18T15:03:26.133Z,77.50
2017-10-18T15:05:54.735Z,77.40
2017-10-18T15:08:26.361Z,77.90
2017-10-18T15:10:54.506Z,78.00
2017-10-18T15:13:23.104Z,77.80
2017-10-18T15:15:51.252Z,77.90
2017-10-18T15:18:19.825Z,78.10
2017-10-18T15:20:48.642Z,78.30
2017-10-18T15:23:16.767Z,78.70
2017-10-18T15:25:48.168Z,78.80
2017-10-18T15:28:16.288Z,78.80
2017-10-18T15:30:44.828Z,78.70
2017-10-18T15:33:12.966Z,78.50
2017-10-18T15:35:41.116Z,78.70
2017-10-18T15:38:10.827Z,79.10
2017-10-18T15:40:39.720Z,79.20
2017-10-18T15:43:08.657Z,79.80
2017-10-18T15:45:39.568Z,80.30
2017-10-18T15:48:07.689Z,80.30
2017-10-18T15:50:35.837Z,80.50
2017-10-18T15:53:03.955Z,80.50
2017-10-18T15:55:33.385Z,80.80
2017-10-18T15:58:03.146Z,81.20
2017-10-18T16:00:31.266Z,81.10
2017-10-18T16:03:00.175Z,81.00
2017-10-18T16:05:28.326Z,81.00
2017-10-18T16:07:57.229Z,80.70
2017-10-18T16:13:09.639Z,80.40
2017-10-18T16:15:38.507Z,80.50
2017-10-18T16:18:08.562Z,80.40
2017-10-18T16:20:36.673Z,81.10
2017-10-18T16:23:04.811Z,81.20
2017-10-18T16:25:32.936Z,81.40
2017-10-18T16:28:01.086Z,80.90
2017-10-18T16:30:30.441Z,80.90
2017-10-18T16:32:59.344Z,80.90
2017-10-18T16:35:31.566Z,80.80
2017-10-18T16:38:01.080Z,80.80
2017-10-18T16:40:29.994Z,80.90
2017-10-18T16:42:58.783Z,81.00
2017-10-18T16:45:28.477Z,81.20
2017-10-18T16:47:57.076Z,80.70
2017-10-18T16:50:25.953Z,80.40
2017-10-18T16:52:54.549Z,80.30
2017-10-18T16:55:24.780Z,80.90
2017-10-18T16:57:56.989Z,80.20
2017-10-18T17:00:28.377Z,80.20
2017-10-18T17:02:56.948Z,80.00
2017-10-18T17:05:25.070Z,81.10
2017-10-18T17:07:54.846Z,80.30
2017-10-18T17:10:22.951Z,79.90
2017-10-18T17:12:54.067Z,80.40
2017-10-18T17:15:22.176Z,80.70
2017-10-18T17:17:50.318Z,81.10
2017-10-18T17:20:19.233Z,81.40
2017-10-18T17:22:47.904Z,81.30
2017-10-18T17:25:16.811Z,81.20
2017-10-18T17:27:46.524Z,81.10
2017-10-18T17:30:14.671Z,81.30
2017-10-18T17:32:43.548Z,80.90
2017-10-18T17:35:11.691Z,80.90
2017-10-18T17:37:39.807Z,79.80
2017-10-18T17:40:08.713Z,80.30
2017-10-18T17:42:36.846Z,80.30
2017-10-18T17:45:04.983Z,80.80
2017-10-18T17:47:33.095Z,81.40
2017-10-18T17:50:02.500Z,81.20
2017-10-18T17:52:30.629Z,80.70
2017-10-18T17:54:59.730Z,80.50
2017-10-18T17:57:43.916Z,80.20
2017-10-18T18:00:13.538Z,80.10
2017-10-18T18:02:41.661Z,80.40
2017-10-18T18:05:10.809Z,80.40
2017-10-18T18:07:39.418Z,80.10
2017-10-18T18:10:07.566Z,80.50
2017-10-18T18:12:35.688Z,79.70
2017-10-18T18:15:03.844Z,79.80
2017-10-18T18:17:31.956Z,80.80
2017-10-18T18:20:00.099Z,81.50
2017-10-18T18:22:28.215Z,81.90
2017-10-18T18:24:56.346Z,82.10
2017-10-18T18:27:24.502Z,81.00
2017-10-18T18:29:53.429Z,80.40
2017-10-18T18:32:21.558Z,81.10
2017-10-18T18:34:50.580Z,80.20
2017-10-18T18:37:20.568Z,80.10
2017-10-18T18:39:49.664Z,79.80
2017-10-18T18:42:19.478Z,79.80
2017-10-18T18:44:49.708Z,79.40
2017-10-18T18:47:20.793Z,79.10
2017-10-18T18:49:49.111Z,79.10
2017-10-18T18:52:17.993Z,79.20
2017-10-18T18:54:46.114Z,79.10
2017-10-18T18:57:15.128Z,80.00
2017-10-18T18:59:43.643Z,79.80
2017-10-18T19:02:13.965Z,78.90
2017-10-18T19:04:43.382Z,78.90
2017-10-18T19:07:12.306Z,78.20
2017-10-18T19:09:44.203Z,78.10
2017-10-18T19:12:12.347Z,78.20
2017-10-18T19:14:40.464Z,78.40
2017-10-18T19:17:09.603Z,78.70
2017-10-18T19:19:37.825Z,78.80
2017-10-18T19:22:05.974Z,78.80
2017-10-18T19:24:34.860Z,77.50
2017-10-18T19:27:04.162Z,77.80
2017-10-18T19:29:32.841Z,78.20
2017-10-18T19:32:00.976Z,78.50
2017-10-18T19:34:30.277Z,78.10
2017-10-18T19:36:59.175Z,78.80
2017-10-18T19:39:28.056Z,78.80
2017-10-18T19:41:56.749Z,78.80
2017-10-18T19:44:25.438Z,78.70
2017-10-18T19:46:54.221Z,78.40
2017-10-18T19:49:23.097Z,78.30
2017-10-18T19:51:51.218Z,78.20
2017-10-18T19:54:20.275Z,77.70
2017-10-18T19:56:49.036Z,77.60
2017-10-18T19:59:18.298Z,77.50
2017-10-18T20:01:46.411Z,77.30
2017-10-18T20:04:14.556Z,77.10
2017-10-18T20:06:43.328Z,77.10
2017-10-18T20:09:11.661Z,77.70
2017-10-18T20:11:39.779Z,77.30
2017-10-18T20:14:07.923Z,77.40
2017-10-18T20:16:36.811Z,77.80
2017-10-18T20:19:05.275Z,77.80
2017-10-18T20:21:33.554Z,78.00
2017-10-18T20:24:01.782Z,77.70
2017-10-18T20:26:30.018Z,78.20
2017-10-18T20:28:59.073Z,78.90
2017-10-18T20:31:27.192Z,78.80
2017-10-18T20:33:56.113Z,77.70
2017-10-18T20:36:24.236Z,77.70
2017-10-18T20:38:52.458Z,77.90
2017-10-18T20:41:22.138Z,78.30
2017-10-18T20:43:51.778Z,78.50
2017-10-18T20:46:19.985Z,78.30
2017-10-18T20:48:48.365Z,78.20
2017-10-18T20:51:17.191Z,78.60
2017-10-18T20:53:46.453Z,80.80
2017-10-18T20:56:15.801Z,80.70
2017-10-18T20:58:44.478Z,80.60
2017-10-18T21:01:13.368Z,79.40
2017-10-18T21:03:42.254Z,79.70
2017-10-18T21:06:11.152Z,79.80
2017-10-18T21:08:40.500Z,79.90
2017-10-18T21:11:08.652Z,79.90
2017-10-18T21:13:36.795Z,79.90
2017-10-18T21:16:05.912Z,80.00
2017-10-18T21:18:34.022Z,80.20
2017-10-18T21:21:02.181Z,80.80
2017-10-18T21:23:30.298Z,81.60
2017-10-18T21:25:58.429Z,82.00
2017-10-18T21:28:26.555Z,82.60
2017-10-18T21:30:55.472Z,83.90
2017-10-18T21:33:24.034Z,83.70
2017-10-18T21:36:00.900Z,84.30
2017-10-18T21:38:29.074Z,84.00
2017-10-18T21:40:59.729Z,84.40
2017-10-18T21:43:30.737Z,84.90
2017-10-18T21:45:58.896Z,85.00
2017-10-18T21:48:27.008Z,85.00
2017-10-18T21:50:55.975Z,86.90
2017-10-18T21:53:24.103Z,86.90
2017-10-18T21:55:52.278Z,87.00
2017-10-18T21:58:20.440Z,86.50
2017-10-18T22:00:48.601Z,87.20
2017-10-18T22:03:17.484Z,86.50
2017-10-18T22:05:47.963Z,86.90
2017-10-18T22:08:17.657Z,86.60
2017-10-18T22:10:46.207Z,86.60
2017-10-18T22:13:15.126Z,86.60
2017-10-18T22:15:43.269Z,86.40
2017-10-18T22:18:11.392Z,86.60
2017-10-18T22:20:39.540Z,86.10
2017-10-18T22:23:08.450Z,86.10
2017-10-18T22:25:36.563Z,86.10
2017-10-18T22:28:04.721Z,86.00
2017-10-18T22:30:33.553Z,86.90
2017-10-18T22:33:02.459Z,86.30
2017-10-18T22:35:30.601Z,86.10
2017-10-18T22:37:58.758Z,86.50
2017-10-18T22:40:28.399Z,86.50
2017-10-18T22:42:57.311Z,87.30
2017-10-18T22:45:26.179Z,87.20
2017-10-18T22:47:55.580Z,86.50
2017-10-18T22:50:24.477Z,86.00
2017-10-18T22:52:53.399Z,85.60
2017-10-18T22:55:21.522Z,85.50
2017-10-18T22:57:49.656Z,85.80
2017-10-18T23:00:18.212Z,85.80
2017-10-18T23:02:46.365Z,85.20
2017-10-18T23:05:15.669Z,84.10
2017-10-18T23:07:45.796Z,83.90
2017-10-18T23:10:14.677Z,83.60
2017-10-18T23:12:44.177Z,83.60
2017-10-18T23:15:12.295Z,83.40
2017-10-18T23:17:40.449Z,83.20
2017-10-18T23:20:08.558Z,83.10
2017-10-18T23:22:36.691Z,83.00
2017-10-18T23:25:04.815Z,83.10
2017-10-18T23:27:32.954Z,83.10
2017-10-18T23:30:01.083Z,83.20
2017-10-18T23:32:29.206Z,83.00
2017-10-18T23:34:57.357Z,82.70
2017-10-18T23:37:25.469Z,82.50
2017-10-18T23:39:53.599Z,83.10
2017-10-18T23:42:21.717Z,83.60
2017-10-18T23:44:49.851Z,82.30
2017-10-18T23:47:17.968Z,82.60
2017-10-18T23:49:48.045Z,81.70
2017-10-18T23:52:16.161Z,81.70
2017-10-18T23:54:44.310Z,81.30
2017-10-18T23:57:12.441Z,81.70
2017-10-18T23:59:41.347Z,81.40
